Time;durP1;ratioP1;P1;durP2;ratioP2;P2;SDS_P1;SDS_P2;PMS_P1;PMS_P2;Temp;Humidity;BMP_temperature;BMP_pressure;BME280_temperature;BME280_humidity;BME280_pressure;Samples;Min_cycle;Max_cycle;Signal;HPM_P1;HPM_P2
2023/06/29 00:01:03;;;;;;;0.03;0.03;;;;;;;15.04;65.51;97664.25;4990874;28;20081;-73
2023/06/29 00:03:31;;;;;;;0.10;0.10;;;;;;;14.98;65.83;97656.22;4991921;28;20045;-74
2023/06/29 00:05:59;;;;;;;0.10;0.10;;;;;;;14.90;66.26;97664.56;4991342;28;20035;-74
2023/06/29 00:08:34;;;;;;;0.20;0.20;;;;;;;14.90;66.12;97657.34;4993734;28;20096;-74
2023/06/29 00:11:04;;;;;;;0.10;0.10;;;;;;;14.85;66.61;97667.91;4986900;28;20561;-73
2023/06/29 00:13:32;;;;;;;0.10;0.10;;;;;;;14.74;66.88;97668.66;4991520;28;20065;-73
2023/06/29 00:15:59;;;;;;;0.10;0.10;;;;;;;14.69;67.16;97657.72;4991264;28;20047;-73
2023/06/29 00:18:28;;;;;;;0.10;0.10;;;;;;;14.72;67.12;97661.84;4988563;28;20074;-72
2023/06/29 00:20:57;;;;;;;0.13;0.13;;;;;;;14.75;66.58;97664.91;4991869;28;20047;-73
2023/06/29 00:23:24;;;;;;;0.00;0.00;;;;;;;14.71;66.96;97661.03;4990095;28;20129;-73
2023/06/29 00:25:53;;;;;;;0.10;0.10;;;;;;;14.63;67.07;97656.75;4988003;28;20035;-73
2023/06/29 00:28:21;;;;;;;0.00;0.00;;;;;;;14.83;66.24;97661.13;4999349;28;20069;-73
2023/06/29 00:30:49;;;;;;;0.03;0.03;;;;;;;14.74;66.25;97659.78;4995222;28;20061;-73
2023/06/29 00:33:17;;;;;;;0.10;0.10;;;;;;;14.68;65.90;97659.59;4996225;28;20077;-73
2023/06/29 00:35:44;;;;;;;0.10;0.10;;;;;;;14.76;65.80;97655.81;4995486;28;20053;-73
2023/06/29 00:38:12;;;;;;;0.08;0.08;;;;;;;14.61;66.58;97663.38;4995979;28;20391;-74
2023/06/29 00:40:40;;;;;;;0.10;0.10;;;;;;;14.57;66.71;97656.78;4997343;28;20064;-73
2023/06/29 00:43:08;;;;;;;0.10;0.10;;;;;;;14.63;66.50;97661.31;4996717;28;20528;-73
2023/06/29 00:45:38;;;;;;;0.10;0.10;;;;;;;14.63;66.33;97653.25;4994066;28;20039;-73
2023/06/29 00:48:06;;;;;;;0.10;0.10;;;;;;;14.46;67.06;97650.25;4990594;28;20050;-73
2023/06/29 00:50:35;;;;;;;0.17;0.17;;;;;;;14.55;66.29;97637.38;4992427;28;20048;-72
2023/06/29 00:53:03;;;;;;;0.10;0.10;;;;;;;14.54;66.50;97639.22;5005322;28;20227;-72
2023/06/29 00:55:30;;;;;;;0.10;0.10;;;;;;;14.49;66.78;97639.09;5000432;28;20402;-73
2023/06/29 00:57:58;;;;;;;0.10;0.10;;;;;;;14.34;67.32;97642.03;4990199;28;20042;-74
2023/06/29 01:00:26;;;;;;;0.20;0.20;;;;;;;14.42;66.99;97640.19;4994629;28;20050;-74
2023/06/29 01:02:55;;;;;;;0.25;0.25;;;;;;;14.31;67.41;97639.81;4993655;28;20046;-74
2023/06/29 01:05:23;;;;;;;0.10;0.10;;;;;;;14.37;66.90;97650.69;4987638;28;20038;-74
2023/06/29 01:07:57;;;;;;;0.10;0.10;;;;;;;14.51;66.48;97641.56;5002165;28;20030;-75
2023/06/29 01:10:25;;;;;;;0.03;0.03;;;;;;;14.56;66.13;97639.03;4986517;28;20054;-74
2023/06/29 01:12:54;;;;;;;0.05;0.05;;;;;;;14.38;66.91;97642.44;4993862;28;20042;-75
2023/06/29 01:15:22;;;;;;;0.10;0.10;;;;;;;14.26;66.93;97638.78;4995063;28;20034;-75
2023/06/29 01:17:53;;;;;;;0.10;0.10;;;;;;;14.18;67.19;97642.56;4990177;28;20053;-73
2023/06/29 01:20:25;;;;;;;0.10;0.10;;;;;;;14.36;66.62;97638.31;4999908;28;20057;-72
2023/06/29 01:22:55;;;;;;;;;;;;;;;14.18;67.21;97637.19;4993664;28;20039;-73
2023/06/29 01:25:27;;;;;;;0.17;0.17;;;;;;;14.20;66.79;97643.19;4995670;28;19929;-73
2023/06/29 01:27:56;;;;;;;0.10;0.10;;;;;;;13.94;67.42;97630.72;4994357;28;20039;-73
2023/06/29 01:30:26;;;;;;;0.10;0.10;;;;;;;13.86;67.17;97638.22;4999746;28;20065;-72
2023/06/29 01:32:56;;;;;;;0.10;0.10;;;;;;;13.95;67.55;97634.22;4989613;28;20049;-72
2023/06/29 01:35:24;;;;;;;0.20;0.20;;;;;;;14.01;67.27;97632.56;4997586;28;20034;-72
2023/06/29 01:37:57;;;;;;;0.25;0.25;;;;;;;14.07;67.18;97624.47;4998654;28;20516;-73
2023/06/29 01:40:28;;;;;;;0.20;0.20;;;;;;;14.02;66.80;97626.13;4985617;28;20129;-72
2023/06/29 01:42:58;;;;;;;0.10;0.10;;;;;;;14.01;66.88;97621.84;4998187;28;20041;-72
2023/06/29 01:45:26;;;;;;;0.13;0.13;;;;;;;13.80;67.38;97621.13;4994090;28;20050;-73
2023/06/29 01:47:56;;;;;;;0.10;0.10;;;;;;;13.88;67.28;97614.69;4995415;28;20057;-72
2023/06/29 01:50:23;;;;;;;0.10;0.10;;;;;;;13.72;68.11;97618.66;4986026;28;20125;-72
2023/06/29 01:52:51;;;;;;;0.13;0.13;;;;;;;13.76;67.74;97622.56;4994355;28;20046;-72
2023/06/29 01:55:20;;;;;;;0.10;0.10;;;;;;;13.81;67.49;97617.38;5003449;28;20538;-72
2023/06/29 01:57:52;;;;;;;0.10;0.10;;;;;;;13.76;67.92;97617.22;5004824;28;20099;-72
2023/06/29 02:00:20;;;;;;;0.10;0.10;;;;;;;13.72;67.84;97615.16;5000694;28;20528;-72
2023/06/29 02:02:52;;;;;;;0.10;0.10;;;;;;;13.65;68.09;97619.75;4996073;28;20042;-73
2023/06/29 02:05:20;;;;;;;0.10;0.10;;;;;;;13.65;67.65;97617.88;4994123;28;20054;-73
2023/06/29 02:07:48;;;;;;;0.10;0.10;;;;;;;13.58;68.03;97612.56;4993207;28;20128;-72
2023/06/29 02:10:15;;;;;;;0.13;0.13;;;;;;;13.47;67.72;97626.63;4993453;28;20490;-72
2023/06/29 02:12:44;;;;;;;0.10;0.10;;;;;;;13.54;67.60;97622.06;4992336;28;20042;-71
2023/06/29 02:15:13;;;;;;;0.10;0.10;;;;;;;13.50;67.91;97617.31;5008119;28;20054;-73
2023/06/29 02:17:41;;;;;;;0.10;0.10;;;;;;;13.53;67.93;97614.22;4999407;28;20041;-73
2023/06/29 02:20:10;;;;;;;0.10;0.10;;;;;;;13.27;68.75;97615.16;4985263;28;20414;-73
2023/06/29 02:22:38;;;;;;;0.13;0.13;;;;;;;13.39;68.40;97613.44;4991604;28;20046;-72
2023/06/29 02:25:06;;;;;;;0.10;0.10;;;;;;;13.53;67.61;97616.91;4995755;28;20058;-73
2023/06/29 02:27:37;;;;;;;0.20;0.20;;;;;;;13.46;67.54;97622.28;4993416;28;20043;-73
2023/06/29 02:30:06;;;;;;;0.10;0.10;;;;;;;13.48;68.09;97619.41;4988022;28;20043;-73
2023/06/29 02:32:36;;;;;;;0.10;0.10;;;;;;;13.59;67.65;97622.25;4993677;28;20034;-73
2023/06/29 02:35:05;;;;;;;0.25;0.25;;;;;;;13.75;66.68;97620.09;5001181;28;20054;-73
2023/06/29 02:37:34;;;;;;;0.10;0.10;;;;;;;13.47;67.66;97621.25;4984134;28;20061;-73
2023/06/29 02:40:01;;;;;;;0.10;0.10;;;;;;;13.29;68.30;97621.09;4995084;28;20141;-73
2023/06/29 02:42:29;;;;;;;0.03;0.03;;;;;;;13.34;67.85;97613.25;5000423;28;20048;-73
2023/06/29 02:44:57;;;;;;;0.30;0.30;;;;;;;13.35;67.93;97614.91;4992396;28;20069;-73
2023/06/29 02:47:24;;;;;;;0.30;0.30;;;;;;;13.23;68.48;97608.56;4984622;28;20129;-73
2023/06/29 02:49:54;;;;;;;0.10;0.10;;;;;;;13.26;68.50;97615.34;4996011;28;20045;-73
2023/06/29 02:52:22;;;;;;;0.10;0.10;;;;;;;13.16;68.83;97613.13;4991630;28;20145;-73
2023/06/29 02:54:52;;;;;;;0.03;0.03;;;;;;;13.12;68.86;97612.66;4986756;28;20134;-73
2023/06/29 02:57:20;;;;;;;0.15;0.15;;;;;;;13.04;69.13;97612.09;4997598;28;20481;-73
2023/06/29 02:59:48;;;;;;;0.10;0.10;;;;;;;13.10;68.68;97611.22;4999585;28;20502;-74
2023/06/29 03:02:16;;;;;;;0.20;0.20;;;;;;;13.06;68.47;97605.50;4991036;28;20057;-73
2023/06/29 03:04:43;;;;;;;0.30;0.30;;;;;;;13.12;68.50;97607.31;4993432;28;20050;-73
2023/06/29 03:07:12;;;;;;;0.10;0.10;;;;;;;13.11;68.59;97612.88;4991915;28;20050;-73
2023/06/29 03:09:40;;;;;;;0.10;0.10;;;;;;;13.21;68.24;97608.75;4987320;28;20042;-73
2023/06/29 03:12:09;;;;;;;0.00;0.00;;;;;;;13.31;68.03;97604.81;4994165;28;20050;-73
2023/06/29 03:14:37;;;;;;;0.10;0.10;;;;;;;13.31;67.92;97616.34;4993592;28;20053;-73
2023/06/29 03:17:05;;;;;;;0.32;0.32;;;;;;;13.36;67.39;97611.19;4992736;28;20410;-73
2023/06/29 03:19:33;;;;;;;0.15;0.15;;;;;;;13.11;68.08;97608.34;4995855;28;20076;-73
2023/06/29 03:22:00;;;;;;;0.10;0.10;;;;;;;13.13;67.89;97606.28;4998895;28;20077;-71
2023/06/29 03:24:29;;;;;;;0.20;0.20;;;;;;;13.16;67.76;97600.53;4996262;28;20425;-71
2023/06/29 03:26:57;;;;;;;0.10;0.10;;;;;;;13.09;68.07;97601.53;4992434;28;20486;-72
2023/06/29 03:29:24;;;;;;;0.20;0.20;;;;;;;12.95;68.42;97606.13;4992679;28;20057;-71
2023/06/29 03:31:52;;;;;;;0.10;0.10;;;;;;;13.06;67.92;97604.66;4991455;28;20144;-72
2023/06/29 03:34:19;;;;;;;0.10;0.10;;;;;;;13.00;68.03;97595.59;4993616;28;20413;-72
2023/06/29 03:36:47;;;;;;;0.00;0.00;;;;;;;13.02;67.95;97590.84;4990240;28;20046;-72
2023/06/29 03:39:15;;;;;;;0.10;0.10;;;;;;;13.09;67.81;97597.00;4991470;28;20049;-72
2023/06/29 03:41:43;;;;;;;0.10;0.10;;;;;;;13.22;67.58;97591.66;4992354;28;20056;-73
2023/06/29 03:44:11;;;;;;;0.15;0.15;;;;;;;13.14;67.45;97593.75;5000306;28;20046;-72
2023/06/29 03:46:38;;;;;;;0.03;0.03;;;;;;;13.04;67.64;97594.16;5000769;28;20426;-72
2023/06/29 03:49:06;;;;;;;0.10;0.10;;;;;;;13.01;67.50;97593.72;4984743;28;20085;-72
2023/06/29 03:51:34;;;;;;;0.20;0.20;;;;;;;13.01;67.45;97580.34;4994484;28;20049;-72
2023/06/29 03:54:01;;;;;;;0.10;0.10;;;;;;;12.85;68.08;97585.13;4991576;28;20053;-74
2023/06/29 03:56:31;;;;;;;0.15;0.15;;;;;;;12.91;67.94;97590.66;4997810;28;20061;-74
2023/06/29 03:58:59;;;;;;;0.10;0.10;;;;;;;13.06;67.34;97593.94;4990437;28;20057;-71
2023/06/29 04:01:27;;;;;;;0.13;0.13;;;;;;;13.14;67.34;97588.38;4993663;28;20494;-74
2023/06/29 04:03:55;;;;;;;0.10;0.10;;;;;;;13.19;66.88;97591.22;4991757;28;20046;-74
2023/06/29 04:06:22;;;;;;;0.10;0.10;;;;;;;13.35;66.61;97588.09;4991592;28;20129;-72
2023/06/29 04:08:50;;;;;;;0.10;0.10;;;;;;;13.57;65.78;97594.81;4991236;28;20049;-72
2023/06/29 04:11:17;;;;;;;0.30;0.30;;;;;;;13.40;65.90;97599.00;4984740;28;20411;-75
2023/06/29 04:13:45;;;;;;;0.20;0.20;;;;;;;13.31;66.25;97592.22;4990767;28;20112;-74
2023/06/29 04:16:14;;;;;;;0.10;0.10;;;;;;;13.38;66.01;97594.91;4992216;28;20046;-74
2023/06/29 04:18:42;;;;;;;0.25;0.25;;;;;;;13.34;66.06;97591.81;5000988;28;20034;-74
2023/06/29 04:21:09;;;;;;;0.10;0.10;;;;;;;13.34;65.97;97597.19;4991711;28;20125;-74
2023/06/29 04:23:37;;;;;;;0.08;0.08;;;;;;;13.42;65.69;97586.22;4992980;28;20042;-73
2023/06/29 04:26:04;;;;;;;0.20;0.20;;;;;;;13.48;65.90;97585.38;4992148;28;20506;-72
2023/06/29 04:28:35;;;;;;;0.10;0.10;;;;;;;13.52;65.43;97583.88;4998080;28;20072;-76
2023/06/29 04:31:02;;;;;;;0.10;0.10;;;;;;;13.45;65.68;97593.84;4998411;28;20089;-74
2023/06/29 04:33:31;;;;;;;0.20;0.20;;;;;;;13.46;65.49;97584.75;4996821;28;20075;-74
2023/06/29 04:35:59;;;;;;;0.10;0.10;;;;;;;13.46;65.62;97584.75;4977102;28;20047;-74
2023/06/29 04:38:27;;;;;;;0.10;0.10;;;;;;;13.49;65.53;97581.66;4982263;28;20053;-74
2023/06/29 04:41:03;;;;;;;0.25;0.25;;;;;;;13.45;65.63;97579.59;4981769;28;20437;-74
2023/06/29 04:43:31;;;;;;;0.08;0.08;;;;;;;13.56;65.71;97587.81;4982262;28;20051;-75
2023/06/29 04:46:00;;;;;;;0.10;0.10;;;;;;;13.58;65.79;97583.06;4988083;28;20486;-75
2023/06/29 04:48:36;;;;;;;0.10;0.10;;;;;;;13.61;65.39;97579.09;4989900;28;20538;-75
2023/06/29 04:51:06;;;;;;;0.13;0.13;;;;;;;13.73;64.92;97580.06;4983904;28;20169;-75
2023/06/29 04:53:33;;;;;;;0.17;0.17;;;;;;;13.88;64.41;97577.94;4981105;28;20137;-74
2023/06/29 04:56:02;;;;;;;0.10;0.10;;;;;;;13.87;64.61;97575.47;4982368;28;20531;-75
2023/06/29 04:58:29;;;;;;;0.10;0.10;;;;;;;13.81;64.92;97574.44;4981552;28;20042;-75
2023/06/29 05:00:57;;;;;;;0.10;0.10;;;;;;;13.80;64.99;97575.50;4981650;28;20043;-74
2023/06/29 05:03:25;;;;;;;0.13;0.13;;;;;;;13.83;65.10;97576.91;4983927;28;20411;-73
2023/06/29 05:05:53;;;;;;;0.20;0.20;;;;;;;13.90;65.12;97569.69;4982809;28;20500;-71
2023/06/29 05:08:22;;;;;;;0.10;0.10;;;;;;;14.04;64.73;97571.22;4983666;28;20054;-72
2023/06/29 05:10:50;;;;;;;0.10;0.10;;;;;;;14.19;64.15;97576.28;4982622;28;20051;-72
2023/06/29 05:13:18;;;;;;;0.10;0.10;;;;;;;14.22;64.04;97568.59;4984918;28;20054;-74
2023/06/29 05:15:47;;;;;;;0.10;0.10;;;;;;;14.35;63.90;97562.31;4985128;28;20050;-71
2023/06/29 05:18:15;;;;;;;0.10;0.10;;;;;;;14.47;63.37;97568.63;4986758;28;20046;-76
2023/06/29 05:20:43;;;;;;;0.00;0.00;;;;;;;14.43;63.50;97563.94;4984951;28;20049;-73
2023/06/29 05:23:11;;;;;;;0.15;0.15;;;;;;;14.60;63.47;97563.16;4985390;28;20432;-73
2023/06/29 05:25:41;;;;;;;0.13;0.13;;;;;;;14.73;62.88;97558.72;4984324;28;20042;-73
2023/06/29 05:28:09;;;;;;;0.00;0.00;;;;;;;14.79;62.87;97560.50;4985808;28;20050;-72
2023/06/29 05:30:36;;;;;;;0.03;0.03;;;;;;;14.97;62.75;97560.50;4984475;28;20516;-74
2023/06/29 05:33:05;;;;;;;0.00;0.00;;;;;;;14.98;62.31;97554.09;4985638;28;20042;-73
2023/06/29 05:35:34;;;;;;;0.10;0.10;;;;;;;15.10;62.49;97559.53;4984910;28;20506;-75
2023/06/29 05:38:02;;;;;;;0.10;0.10;;;;;;;15.21;61.99;97558.78;4984061;28;20053;-73
2023/06/29 05:40:29;;;;;;;0.10;0.10;;;;;;;15.27;61.72;97557.88;4985535;28;20505;-76
2023/06/29 05:42:58;;;;;;;0.20;0.20;;;;;;;15.45;61.06;97557.88;4983190;28;20870;-72
2023/06/29 05:45:26;;;;;;;0.10;0.10;;;;;;;15.54;60.94;97559.25;4984389;28;20518;-75
2023/06/29 05:47:54;;;;;;;0.00;0.00;;;;;;;15.65;61.04;97555.78;4983789;28;20046;-73
2023/06/29 05:50:22;;;;;;;0.00;0.00;;;;;;;15.63;61.03;97546.28;4983882;28;20197;-73
2023/06/29 05:52:50;;;;;;;0.10;0.10;;;;;;;15.71;60.86;97548.66;4984484;28;20047;-73
2023/06/29 05:55:19;;;;;;;0.10;0.10;;;;;;;15.86;60.22;97546.41;4984217;28;20089;-73
2023/06/29 05:57:46;;;;;;;0.10;0.10;;;;;;;16.06;59.85;97554.16;4984376;28;20049;-73
2023/06/29 06:00:18;;;;;;;0.10;0.10;;;;;;;16.23;58.77;97554.31;4985011;28;20050;-73
2023/06/29 06:02:45;;;;;;;0.10;0.10;;;;;;;16.38;58.39;97554.69;4984812;28;20062;-73
2023/06/29 06:05:14;;;;;;;0.13;0.13;;;;;;;16.49;58.32;97553.91;4984939;28;20050;-73
2023/06/29 06:07:41;;;;;;;0.10;0.10;;;;;;;16.63;57.94;97560.72;4983838;28;20066;-72
2023/06/29 06:10:09;;;;;;;0.10;0.10;;;;;;;16.76;57.31;97560.50;4984174;28;20046;-72
2023/06/29 06:12:37;;;;;;;0.10;0.10;;;;;;;16.86;57.24;97559.91;4983097;28;20068;-73
2023/06/29 06:15:07;;;;;;;0.00;0.00;;;;;;;16.96;56.56;97556.59;4985166;28;20042;-74
2023/06/29 06:17:36;;;;;;;0.10;0.10;;;;;;;17.07;56.22;97558.47;4983105;28;20046;-73
2023/06/29 06:20:05;;;;;;;0.13;0.13;;;;;;;17.16;55.82;97562.44;4984814;28;20042;-74
2023/06/29 06:22:33;;;;;;;0.10;0.10;;;;;;;17.26;55.43;97559.97;4982931;28;20046;-74
2023/06/29 06:25:00;;;;;;;0.00;0.00;;;;;;;17.34;54.93;97556.09;4982559;28;20051;-73
2023/06/29 06:27:28;;;;;;;0.10;0.10;;;;;;;17.45;55.05;97550.63;4983400;28;20180;-73
2023/06/29 06:29:55;;;;;;;0.10;0.10;;;;;;;17.55;55.30;97544.63;4983958;28;20043;-74
2023/06/29 06:32:24;;;;;;;0.13;0.13;;;;;;;17.63;54.56;97549.69;4983936;28;20046;-73
2023/06/29 06:34:53;;;;;;;0.10;0.10;;;;;;;17.74;54.67;97542.59;4983378;28;20066;-74
2023/06/29 06:37:21;;;;;;;0.10;0.10;;;;;;;17.86;54.10;97543.34;4982870;28;20412;-74
2023/06/29 06:39:48;;;;;;;0.03;0.03;;;;;;;17.96;53.75;97538.16;4982054;28;20545;-74
2023/06/29 06:42:16;;;;;;;0.00;0.00;;;;;;;18.10;53.91;97542.16;4980147;28;20058;-74
2023/06/29 06:44:50;;;;;;;0.00;0.00;;;;;;;18.24;53.09;97538.09;4983768;28;20134;-75
2023/06/29 06:47:18;;;;;;;0.10;0.10;;;;;;;18.38;52.98;97532.34;4984746;28;20212;-74
2023/06/29 06:49:47;;;;;;;0.10;0.10;;;;;;;18.54;52.79;97539.66;4983255;28;20050;-74
2023/06/29 06:52:15;;;;;;;0.00;0.00;;;;;;;18.69;52.44;97535.31;4983436;28;20050;-75
2023/06/29 06:54:43;;;;;;;0.10;0.10;;;;;;;18.86;51.27;97538.00;4984398;28;20395;-73
2023/06/29 06:57:11;;;;;;;0.10;0.10;;;;;;;19.00;51.63;97531.16;4983630;28;20422;-73
2023/06/29 06:59:38;;;;;;;0.00;0.00;;;;;;;19.13;50.81;97531.88;4982648;28;20042;-72
2023/06/29 07:02:07;;;;;;;0.10;0.10;;;;;;;19.20;50.94;97535.22;4982432;28;20054;-75
2023/06/29 07:04:34;;;;;;;0.10;0.10;;;;;;;19.20;50.54;97533.34;5004438;28;20050;-75
2023/06/29 07:07:03;;;;;;;0.08;0.08;;;;;;;19.43;50.37;97532.25;4984020;28;20070;-76
2023/06/29 07:09:32;;;;;;;0.10;0.10;;;;;;;19.56;49.94;97531.09;4983316;28;20097;-76
2023/06/29 07:12:00;;;;;;;0.10;0.10;;;;;;;19.70;50.28;97532.34;4982085;28;20051;-76
2023/06/29 07:14:27;;;;;;;0.10;0.10;;;;;;;19.94;49.12;97524.72;4983326;28;20051;-76
2023/06/29 07:16:55;;;;;;;0.10;0.10;;;;;;;20.22;48.52;97527.16;4983090;28;20046;-76
2023/06/29 07:19:23;;;;;;;0.00;0.00;;;;;;;20.44;47.88;97532.53;4983428;28;20034;-75
2023/06/29 07:21:54;;;;;;;0.10;0.10;;;;;;;20.58;48.37;97522.03;4982343;28;20058;-75
2023/06/29 07:24:24;;;;;;;0.00;0.00;;;;;;;20.61;48.14;97527.78;4982369;28;20738;-75
2023/06/29 07:26:53;;;;;;;0.00;0.00;;;;;;;20.81;46.29;97517.06;4983098;28;20046;-76
2023/06/29 07:29:21;;;;;;;0.00;0.00;;;;;;;20.95;46.71;97514.69;4981961;28;20043;-75
2023/06/29 07:31:49;;;;;;;0.00;0.00;;;;;;;21.15;46.03;97512.09;4980966;28;20050;-76
2023/06/29 07:34:19;;;;;;;0.00;0.00;;;;;;;21.32;45.86;97509.19;4982508;28;20042;-73
2023/06/29 07:36:46;;;;;;;0.00;0.00;;;;;;;21.48;44.93;97510.09;4981038;28;20047;-72
2023/06/29 07:39:14;;;;;;;0.00;0.00;;;;;;;21.60;45.18;97499.78;4983443;28;20056;-73
2023/06/29 07:41:42;;;;;;;0.05;0.05;;;;;;;21.95;44.15;97499.06;4981054;28;20054;-73
2023/06/29 07:44:11;;;;;;;0.10;0.10;;;;;;;22.06;42.95;97502.63;4980903;28;20407;-74
2023/06/29 07:46:39;;;;;;;0.00;0.00;;;;;;;22.31;42.62;97499.94;4982813;28;20046;-73
2023/06/29 07:49:07;;;;;;;0.00;0.00;;;;;;;22.54;41.62;97487.66;4981812;28;20046;-73
2023/06/29 07:51:34;;;;;;;0.13;0.13;;;;;;;22.65;41.08;97487.38;4982219;28;20130;-73
2023/06/29 07:54:03;;;;;;;0.08;0.08;;;;;;;22.82;41.33;97491.75;4982526;28;20138;-73
2023/06/29 07:56:32;;;;;;;0.00;0.00;;;;;;;22.97;39.30;97495.22;4983355;28;20096;-75
2023/06/29 07:59:02;;;;;;;0.03;0.03;;;;;;;23.03;39.47;97483.25;4981615;28;20042;-75
2023/06/29 08:01:31;;;;;;;0.00;0.00;;;;;;;23.35;39.31;97485.59;4981930;28;20572;-76
2023/06/29 08:03:59;;;;;;;0.00;0.00;;;;;;;23.47;38.92;97481.69;4983888;28;20127;-76
2023/06/29 08:06:31;;;;;;;0.00;0.00;;;;;;;23.60;38.16;97476.47;4982728;28;20104;-78
2023/06/29 08:09:02;;;;;;;0.03;0.03;;;;;;;23.64;38.29;97479.47;4982702;28;20046;-75
2023/06/29 08:11:29;;;;;;;0.00;0.00;;;;;;;23.63;37.36;97470.47;4983569;28;20074;-76
2023/06/29 08:13:57;;;;;;;0.00;0.00;;;;;;;23.86;37.64;97473.59;4982460;28;20121;-76
2023/06/29 08:16:25;;;;;;;0.00;0.00;;;;;;;23.93;38.10;97472.19;4983153;28;20054;-76
2023/06/29 08:18:53;;;;;;;0.10;0.10;;;;;;;24.17;37.45;97466.03;4982394;28;20490;-75
2023/06/29 08:21:21;;;;;;;0.00;0.00;;;;;;;24.38;37.50;97476.50;4981813;28;20054;-75
2023/06/29 08:23:49;;;;;;;0.00;0.00;;;;;;;24.50;37.17;97468.72;4981633;28;20042;-76
2023/06/29 08:26:17;;;;;;;0.00;0.00;;;;;;;24.62;36.52;97471.09;4982465;28;20526;-76
2023/06/29 08:28:45;;;;;;;0.00;0.00;;;;;;;24.81;36.79;97468.47;4982004;28;20053;-76
2023/06/29 08:31:12;;;;;;;0.00;0.00;;;;;;;24.85;35.97;97464.03;4983352;28;20525;-77
2023/06/29 08:33:40;;;;;;;0.00;0.00;;;;;;;25.10;36.55;97462.97;4988085;28;20042;-76
2023/06/29 08:36:09;;;;;;;0.00;0.00;;;;;;;25.21;35.53;97461.75;4992060;28;20138;-76
2023/06/29 08:38:37;;;;;;;0.03;0.03;;;;;;;25.37;35.16;97462.34;4990081;28;20042;-77
2023/06/29 08:41:05;;;;;;;0.00;0.00;;;;;;;25.46;35.00;97464.13;4991846;28;20046;-79
2023/06/29 08:43:33;;;;;;;0.03;0.03;;;;;;;25.38;33.64;97461.25;4985808;28;20142;-77
2023/06/29 08:46:02;;;;;;;0.05;0.05;;;;;;;25.29;33.00;97460.28;4982801;28;20054;-80
2023/06/29 08:48:31;;;;;;;0.10;0.10;;;;;;;25.09;33.41;97456.69;4984915;28;20084;-76
2023/06/29 08:51:03;;;;;;;0.03;0.03;;;;;;;24.85;34.23;97456.66;4989081;28;20042;-78
2023/06/29 08:53:32;;;;;;;0.00;0.00;;;;;;;25.13;32.88;97459.63;4986294;28;20046;-77
2023/06/29 08:56:00;;;;;;;0.00;0.00;;;;;;;25.24;33.17;97452.94;4986123;28;20054;-77
2023/06/29 08:58:28;;;;;;;0.03;0.03;;;;;;;25.33;32.70;97458.59;4988221;28;20121;-78
2023/06/29 09:00:56;;;;;;;0.00;0.00;;;;;;;25.72;32.17;97444.69;4986482;28;20386;-78
2023/06/29 09:03:24;;;;;;;0.00;0.00;;;;;;;25.91;32.10;97446.31;4986231;28;20038;-78
2023/06/29 09:05:55;;;;;;;0.00;0.00;;;;;;;25.50;31.88;97447.97;4985608;28;20078;-79
2023/06/29 09:08:24;;;;;;;0.00;0.00;;;;;;;25.92;31.92;97449.84;4986333;28;20518;-78
2023/06/29 09:10:55;;;;;;;0.00;0.00;;;;;;;26.29;31.57;97438.88;4986853;28;20039;-78
2023/06/29 09:13:25;;;;;;;0.00;0.00;;;;;;;26.49;31.17;97440.44;4986608;28;20042;-78
2023/06/29 09:15:54;;;;;;;0.00;0.00;;;;;;;26.64;30.17;97445.66;4986479;28;20054;-77
2023/06/29 09:18:22;;;;;;;0.00;0.00;;;;;;;26.57;30.26;97445.25;4985570;28;20049;-78
2023/06/29 09:20:51;;;;;;;0.00;0.00;;;;;;;26.43;30.42;97438.09;4989828;28;20046;-78
2023/06/29 09:23:20;;;;;;;0.00;0.00;;;;;;;26.03;30.45;97445.03;4985073;28;20034;-77
2023/06/29 09:25:50;;;;;;;0.10;0.10;;;;;;;26.29;30.17;97436.13;4990931;28;20054;-77
2023/06/29 09:28:19;;;;;;;0.00;0.00;;;;;;;26.33;30.24;97433.63;4988978;28;20397;-78
2023/06/29 09:30:49;;;;;;;0.00;0.00;;;;;;;25.74;31.44;97432.34;4992336;28;20044;-78
2023/06/29 09:33:19;;;;;;;0.00;0.00;;;;;;;25.67;31.60;97426.41;4986378;28;20137;-78
2023/06/29 09:35:48;;;;;;;0.00;0.00;;;;;;;25.97;30.84;97425.13;4987245;28;20043;-78
2023/06/29 09:38:16;;;;;;;0.00;0.00;;;;;;;26.15;31.15;97423.50;4986681;28;20088;-79
2023/06/29 09:40:49;;;;;;;0.00;0.00;;;;;;;26.53;30.17;97419.56;4987491;28;20043;-78
2023/06/29 09:43:24;;;;;;;0.03;0.03;;;;;;;26.81;30.29;97423.13;4988065;28;20038;-78
2023/06/29 09:45:52;;;;;;;0.30;0.30;;;;;;;26.72;29.81;97419.47;4985816;28;20050;-78
2023/06/29 09:48:22;;;;;;;0.03;0.03;;;;;;;26.16;31.17;97419.66;4988546;28;20045;-78
2023/06/29 09:50:55;;;;;;;0.00;0.00;;;;;;;26.32;30.67;97421.03;4986358;28;20031;-78
2023/06/29 09:53:30;;;;;;;0.00;0.00;;;;;;;25.73;31.25;97418.97;4987779;28;20046;-80
2023/06/29 09:55:59;;;;;;;0.00;0.00;;;;;;;26.01;31.20;97411.69;4988706;28;20054;-78
2023/06/29 09:58:29;;;;;;;0.00;0.00;;;;;;;26.25;31.31;97415.94;4984011;28;20113;-78
2023/06/29 10:00:58;;;;;;;0.00;0.00;;;;;;;26.77;29.64;97413.91;4990909;28;20046;-78
2023/06/29 10:03:26;;;;;;;0.00;0.00;;;;;;;26.64;28.94;97407.31;4984934;28;20384;-78
2023/06/29 10:05:57;;;;;;;0.00;0.00;;;;;;;26.81;29.13;97412.19;4986108;28;20042;-80
2023/06/29 10:08:27;;;;;;;0.00;0.00;;;;;;;26.49;30.05;97407.56;4986022;28;20065;-78
2023/06/29 10:10:58;;;;;;;0.00;0.00;;;;;;;26.56;29.81;97408.00;4986648;28;20109;-77
2023/06/29 10:13:32;;;;;;;0.03;0.03;;;;;;;26.98;29.38;97403.41;4985140;28;20070;-79
2023/06/29 10:16:01;;;;;;;0.00;0.00;;;;;;;27.00;29.34;97401.16;4989313;28;20052;-79
2023/06/29 10:18:31;;;;;;;0.00;0.00;;;;;;;26.78;29.34;97393.63;4987230;28;20460;-77
2023/06/29 10:20:59;;;;;;;0.00;0.00;;;;;;;26.19;30.72;97399.88;4986179;28;20043;-79
2023/06/29 10:23:27;;;;;;;0.00;0.00;;;;;;;26.60;30.13;97395.31;4986397;28;20133;-79
2023/06/29 10:25:55;;;;;;;0.03;0.03;;;;;;;26.51;30.12;97383.44;4991285;28;20106;-76
2023/06/29 10:28:23;;;;;;;0.00;0.00;;;;;;;26.81;29.91;97386.72;4989796;28;20098;-79
2023/06/29 10:30:58;;;;;;;0.00;0.00;;;;;;;27.40;29.14;97377.56;4991296;28;20035;-77
2023/06/29 10:33:26;;;;;;;0.00;0.00;;;;;;;27.63;28.77;97378.41;4992993;28;20041;-78
2023/06/29 10:35:55;;;;;;;0.00;0.00;;;;;;;27.59;28.88;97375.50;4992273;28;20133;-77
2023/06/29 10:38:28;;;;;;;0.00;0.00;;;;;;;27.61;28.50;97366.97;4983991;28;20038;-79
2023/06/29 10:40:56;;;;;;;0.00;0.00;;;;;;;27.41;28.76;97363.50;4985590;28;20053;-77
2023/06/29 10:43:26;;;;;;;0.00;0.00;;;;;;;27.47;28.87;97357.94;4987945;28;20395;-78
2023/06/29 10:45:54;;;;;;;0.00;0.00;;;;;;;27.53;29.25;97362.16;4987614;28;20517;-78
2023/06/29 10:48:22;;;;;;;0.00;0.00;;;;;;;27.80;29.01;97353.88;4983428;28;20081;-78
2023/06/29 10:51:13;;;;;;;0.00;0.00;;;;;;;28.50;28.07;97358.66;4987774;28;20043;-77
2023/06/29 10:53:41;;;;;;;0.00;0.00;;;;;;;28.70;27.22;97351.81;4984524;28;20064;-79
2023/06/29 10:56:28;;;;;;;0.00;0.00;;;;;;;28.88;27.59;97355.44;4984510;28;20057;-78
2023/06/29 10:58:56;;;;;;;0.00;0.00;;;;;;;28.98;27.93;97353.19;4983820;28;20053;-78
2023/06/29 11:01:25;;;;;;;0.00;0.00;;;;;;;29.29;27.22;97352.28;4983995;28;20084;-78
2023/06/29 11:03:52;;;;;;;0.00;0.00;;;;;;;29.18;26.82;97352.59;4987689;28;20069;-77
2023/06/29 11:06:20;;;;;;;0.00;0.00;;;;;;;29.35;26.94;97353.78;4985345;28;20570;-77
2023/06/29 11:09:01;;;;;;;0.00;0.00;;;;;;;29.26;26.70;97344.72;4981602;28;20516;-77
2023/06/29 11:11:29;;;;;;;0.00;0.00;;;;;;;29.30;26.85;97354.72;4985472;28;20038;-78
2023/06/29 11:13:57;;;;;;;0.00;0.00;;;;;;;28.87;27.20;97346.38;4981880;28;20112;-78
2023/06/29 11:16:26;;;;;;;0.00;0.00;;;;;;;28.94;27.29;97340.44;4984737;28;20495;-76
2023/06/29 11:18:54;;;;;;;0.00;0.00;;;;;;;28.90;27.14;97331.19;4984075;28;20053;-78
2023/06/29 11:21:25;;;;;;;0.00;0.00;;;;;;;29.10;27.55;97336.09;4983768;28;20610;-79
2023/06/29 11:23:53;;;;;;;0.00;0.00;;;;;;;28.78;27.68;97326.31;4984972;28;20051;-78
2023/06/29 11:26:21;;;;;;;0.00;0.00;;;;;;;29.19;27.63;97329.47;4988956;28;20058;-78
2023/06/29 11:28:49;;;;;;;0.00;0.00;;;;;;;29.14;27.25;97331.59;4983939;28;20062;-77
2023/06/29 11:31:17;;;;;;;0.00;0.00;;;;;;;29.22;27.22;97330.78;4983687;28;20073;-78
2023/06/29 11:33:49;;;;;;;0.03;0.03;;;;;;;29.58;26.66;97326.94;4985502;28;20042;-77
2023/06/29 11:36:27;;;;;;;0.00;0.00;;;;;;;29.67;26.93;97311.25;4986940;28;20073;-78
2023/06/29 11:39:08;;;;;;;;;;;;;;;29.60;26.49;97321.91;4989808;28;20046;-78
2023/06/29 11:41:36;;;;;;;0.00;0.00;;;;;;;29.52;27.24;97316.09;4983927;28;20297;-78